sensor_id;sensor_type;location;lat;lon;timestamp;P1;durP1;ratioP1;P2;durP2;ratioP2
18206;SDS011;9229;52.354;20.886;2022-12-11T00:04:11;40.50;;;14.38;;
18206;SDS011;9229;52.354;20.886;2022-12-11T00:09:15;39.00;;;13.68;;
18206;SDS011;9229;52.354;20.886;2022-12-11T00:14:17;33.85;;;13.57;;
18206;SDS011;9229;52.354;20.886;2022-12-11T00:19:19;34.58;;;13.60;;
18206;SDS011;9229;52.354;20.886;2022-12-11T00:24:23;33.42;;;12.38;;
18206;SDS011;9229;52.354;20.886;2022-12-11T00:29:25;38.15;;;12.65;;
18206;SDS011;9229;52.354;20.886;2022-12-11T00:34:27;43.63;;;15.98;;
18206;SDS011;9229;52.354;20.886;2022-12-11T00:39:30;39.78;;;13.32;;
18206;SDS011;9229;52.354;20.886;2022-12-11T00:44:32;33.50;;;13.02;;
18206;SDS011;9229;52.354;20.886;2022-12-11T00:49:34;43.88;;;13.25;;
18206;SDS011;9229;52.354;20.886;2022-12-11T00:54:38;39.55;;;12.88;;
18206;SDS011;9229;52.354;20.886;2022-12-11T00:59:40;40.17;;;13.85;;
18206;SDS011;9229;52.354;20.886;2022-12-11T01:04:42;33.72;;;13.65;;
18206;SDS011;9229;52.354;20.886;2022-12-11T01:09:45;34.35;;;13.38;;
18206;SDS011;9229;52.354;20.886;2022-12-11T01:15:05;37.90;;;12.93;;
18206;SDS011;9229;52.354;20.886;2022-12-11T01:20:07;30.27;;;11.40;;
18206;SDS011;9229;52.354;20.886;2022-12-11T01:25:11;27.25;;;12.07;;
18206;SDS011;9229;52.354;20.886;2022-12-11T01:30:13;29.13;;;10.63;;
18206;SDS011;9229;52.354;20.886;2022-12-11T01:35:15;30.38;;;12.55;;
18206;SDS011;9229;52.354;20.886;2022-12-11T01:40:20;23.13;;;10.07;;
18206;SDS011;9229;52.354;20.886;2022-12-11T01:45:33;30.20;;;11.23;;
18206;SDS011;9229;52.354;20.886;2022-12-11T01:50:40;30.65;;;12.05;;
18206;SDS011;9229;52.354;20.886;2022-12-11T01:55:46;25.73;;;12.05;;
18206;SDS011;9229;52.354;20.886;2022-12-11T02:00:51;33.45;;;13.15;;
18206;SDS011;9229;52.354;20.886;2022-12-11T02:05:57;30.40;;;13.70;;
18206;SDS011;9229;52.354;20.886;2022-12-11T02:11:02;41.97;;;16.02;;
18206;SDS011;9229;52.354;20.886;2022-12-11T02:16:12;43.47;;;16.13;;
18206;SDS011;9229;52.354;20.886;2022-12-11T02:21:19;40.05;;;15.50;;
18206;SDS011;9229;52.354;20.886;2022-12-11T02:26:33;39.10;;;15.07;;
18206;SDS011;9229;52.354;20.886;2022-12-11T02:31:49;43.83;;;16.85;;
18206;SDS011;9229;52.354;20.886;2022-12-11T02:36:56;49.80;;;17.75;;
18206;SDS011;9229;52.354;20.886;2022-12-11T02:42:02;53.70;;;17.10;;
18206;SDS011;9229;52.354;20.886;2022-12-11T02:47:07;45.67;;;16.13;;
18206;SDS011;9229;52.354;20.886;2022-12-11T02:52:13;47.60;;;18.17;;
18206;SDS011;9229;52.354;20.886;2022-12-11T02:57:20;44.33;;;16.95;;
18206;SDS011;9229;52.354;20.886;2022-12-11T03:02:29;50.38;;;17.08;;
18206;SDS011;9229;52.354;20.886;2022-12-11T03:07:32;38.47;;;15.05;;
18206;SDS011;9229;52.354;20.886;2022-12-11T03:12:38;44.50;;;17.27;;
18206;SDS011;9229;52.354;20.886;2022-12-11T03:17:46;37.58;;;14.73;;
18206;SDS011;9229;52.354;20.886;2022-12-11T03:22:56;32.08;;;13.25;;
18206;SDS011;9229;52.354;20.886;2022-12-11T03:28:09;35.20;;;14.25;;
18206;SDS011;9229;52.354;20.886;2022-12-11T03:33:16;32.17;;;12.77;;
18206;SDS011;9229;52.354;20.886;2022-12-11T03:38:23;33.05;;;13.65;;
18206;SDS011;9229;52.354;20.886;2022-12-11T03:43:28;45.25;;;16.08;;
18206;SDS011;9229;52.354;20.886;2022-12-11T03:48:35;36.88;;;13.23;;
18206;SDS011;9229;52.354;20.886;2022-12-11T03:53:39;44.80;;;16.95;;
18206;SDS011;9229;52.354;20.886;2022-12-11T03:58:41;41.63;;;17.48;;
18206;SDS011;9229;52.354;20.886;2022-12-11T04:03:45;43.50;;;17.42;;
18206;SDS011;9229;52.354;20.886;2022-12-11T04:08:47;45.38;;;17.88;;
18206;SDS011;9229;52.354;20.886;2022-12-11T04:13:49;44.83;;;17.05;;
18206;SDS011;9229;52.354;20.886;2022-12-11T04:19:08;37.63;;;15.93;;
18206;SDS011;9229;52.354;20.886;2022-12-11T04:24:28;47.60;;;15.55;;
18206;SDS011;9229;52.354;20.886;2022-12-11T04:29:30;39.70;;;14.75;;
18206;SDS011;9229;52.354;20.886;2022-12-11T04:34:34;42.08;;;15.55;;
18206;SDS011;9229;52.354;20.886;2022-12-11T04:39:35;43.22;;;17.75;;
18206;SDS011;9229;52.354;20.886;2022-12-11T04:44:37;36.63;;;15.18;;
18206;SDS011;9229;52.354;20.886;2022-12-11T04:49:41;29.23;;;13.63;;
18206;SDS011;9229;52.354;20.886;2022-12-11T04:54:43;36.30;;;14.20;;
18206;SDS011;9229;52.354;20.886;2022-12-11T04:59:48;34.05;;;14.65;;
18206;SDS011;9229;52.354;20.886;2022-12-11T05:05:15;29.85;;;12.38;;
18206;SDS011;9229;52.354;20.886;2022-12-11T05:10:17;37.90;;;13.45;;
18206;SDS011;9229;52.354;20.886;2022-12-11T05:15:19;32.50;;;14.25;;
18206;SDS011;9229;52.354;20.886;2022-12-11T05:20:22;30.05;;;13.80;;
18206;SDS011;9229;52.354;20.886;2022-12-11T05:25:24;40.03;;;14.07;;
18206;SDS011;9229;52.354;20.886;2022-12-11T05:30:26;40.22;;;15.18;;
18206;SDS011;9229;52.354;20.886;2022-12-11T05:35:29;47.67;;;15.60;;
18206;SDS011;9229;52.354;20.886;2022-12-11T05:40:31;40.17;;;15.63;;
18206;SDS011;9229;52.354;20.886;2022-12-11T05:45:33;41.13;;;15.05;;
18206;SDS011;9229;52.354;20.886;2022-12-11T05:50:37;40.22;;;13.73;;
18206;SDS011;9229;52.354;20.886;2022-12-11T05:55:40;35.92;;;13.50;;
18206;SDS011;9229;52.354;20.886;2022-12-11T06:00:44;34.92;;;11.93;;
18206;SDS011;9229;52.354;20.886;2022-12-11T06:05:49;29.25;;;12.68;;
18206;SDS011;9229;52.354;20.886;2022-12-11T06:10:50;38.47;;;13.30;;
18206;SDS011;9229;52.354;20.886;2022-12-11T06:15:53;33.75;;;13.35;;
18206;SDS011;9229;52.354;20.886;2022-12-11T06:20:56;26.85;;;11.35;;
18206;SDS011;9229;52.354;20.886;2022-12-11T06:25:58;24.52;;;10.27;;
18206;SDS011;9229;52.354;20.886;2022-12-11T06:31:00;26.50;;;11.90;;
18206;SDS011;9229;52.354;20.886;2022-12-11T06:36:05;29.75;;;11.68;;
18206;SDS011;9229;52.354;20.886;2022-12-11T06:41:09;28.35;;;10.75;;
18206;SDS011;9229;52.354;20.886;2022-12-11T06:46:12;25.08;;;11.05;;
18206;SDS011;9229;52.354;20.886;2022-12-11T06:51:17;31.85;;;11.40;;
18206;SDS011;9229;52.354;20.886;2022-12-11T06:56:21;27.35;;;10.65;;
18206;SDS011;9229;52.354;20.886;2022-12-11T07:01:24;20.20;;;9.18;;
18206;SDS011;9229;52.354;20.886;2022-12-11T07:06:29;18.60;;;8.82;;
18206;SDS011;9229;52.354;20.886;2022-12-11T07:11:31;25.83;;;10.63;;
18206;SDS011;9229;52.354;20.886;2022-12-11T07:16:34;21.83;;;9.63;;
18206;SDS011;9229;52.354;20.886;2022-12-11T07:21:37;22.08;;;9.80;;
18206;SDS011;9229;52.354;20.886;2022-12-11T07:26:39;24.92;;;9.00;;
18206;SDS011;9229;52.354;20.886;2022-12-11T07:31:41;20.80;;;8.85;;
18206;SDS011;9229;52.354;20.886;2022-12-11T07:36:45;24.58;;;9.80;;
18206;SDS011;9229;52.354;20.886;2022-12-11T07:41:47;23.85;;;10.45;;
18206;SDS011;9229;52.354;20.886;2022-12-11T07:46:51;16.98;;;9.15;;
18206;SDS011;9229;52.354;20.886;2022-12-11T07:51:55;16.80;;;9.00;;
18206;SDS011;9229;52.354;20.886;2022-12-11T07:56:57;20.10;;;9.05;;
18206;SDS011;9229;52.354;20.886;2022-12-11T08:01:59;19.63;;;8.93;;
18206;SDS011;9229;52.354;20.886;2022-12-11T08:07:02;18.10;;;9.20;;
18206;SDS011;9229;52.354;20.886;2022-12-11T08:12:04;23.95;;;10.02;;
18206;SDS011;9229;52.354;20.886;2022-12-11T08:17:07;21.90;;;9.13;;
18206;SDS011;9229;52.354;20.886;2022-12-11T08:22:13;22.88;;;9.77;;
18206;SDS011;9229;52.354;20.886;2022-12-11T08:27:14;22.63;;;9.68;;
18206;SDS011;9229;52.354;20.886;2022-12-11T08:32:16;17.25;;;9.43;;
18206;SDS011;9229;52.354;20.886;2022-12-11T08:37:20;23.38;;;9.38;;
18206;SDS011;9229;52.354;20.886;2022-12-11T08:42:23;17.35;;;8.95;;
18206;SDS011;9229;52.354;20.886;2022-12-11T08:47:27;14.90;;;8.68;;
18206;SDS011;9229;52.354;20.886;2022-12-11T08:52:32;17.95;;;8.43;;
18206;SDS011;9229;52.354;20.886;2022-12-11T08:57:36;20.88;;;8.48;;
18206;SDS011;9229;52.354;20.886;2022-12-11T09:02:38;15.75;;;7.85;;
18206;SDS011;9229;52.354;20.886;2022-12-11T09:07:42;24.17;;;9.10;;
18206;SDS011;9229;52.354;20.886;2022-12-11T09:12:47;21.75;;;9.50;;
18206;SDS011;9229;52.354;20.886;2022-12-11T09:17:51;20.42;;;8.48;;
18206;SDS011;9229;52.354;20.886;2022-12-11T09:23:06;21.92;;;8.45;;
18206;SDS011;9229;52.354;20.886;2022-12-11T09:28:40;12.65;;;8.38;;
18206;SDS011;9229;52.354;20.886;2022-12-11T09:34:19;19.08;;;8.73;;
18206;SDS011;9229;52.354;20.886;2022-12-11T09:39:24;17.27;;;9.07;;
18206;SDS011;9229;52.354;20.886;2022-12-11T09:44:31;17.20;;;8.02;;
18206;SDS011;9229;52.354;20.886;2022-12-11T09:49:40;23.05;;;8.90;;
18206;SDS011;9229;52.354;20.886;2022-12-11T09:54:49;22.15;;;10.15;;
18206;SDS011;9229;52.354;20.886;2022-12-11T09:59:59;24.83;;;8.77;;
18206;SDS011;9229;52.354;20.886;2022-12-11T10:05:12;24.30;;;9.45;;
18206;SDS011;9229;52.354;20.886;2022-12-11T10:10:24;13.18;;;8.07;;
18206;SDS011;9229;52.354;20.886;2022-12-11T10:15:36;12.93;;;7.35;;
18206;SDS011;9229;52.354;20.886;2022-12-11T10:20:44;12.80;;;7.88;;
18206;SDS011;9229;52.354;20.886;2022-12-11T10:25:49;17.35;;;8.35;;
18206;SDS011;9229;52.354;20.886;2022-12-11T10:30:58;18.48;;;8.02;;
18206;SDS011;9229;52.354;20.886;2022-12-11T10:36:09;17.10;;;8.95;;
18206;SDS011;9229;52.354;20.886;2022-12-11T10:41:18;14.07;;;8.40;;
18206;SDS011;9229;52.354;20.886;2022-12-11T10:46:24;21.52;;;7.55;;
18206;SDS011;9229;52.354;20.886;2022-12-11T10:51:32;14.98;;;8.02;;
18206;SDS011;9229;52.354;20.886;2022-12-11T10:56:37;13.32;;;8.18;;
18206;SDS011;9229;52.354;20.886;2022-12-11T11:01:40;12.82;;;7.68;;
18206;SDS011;9229;52.354;20.886;2022-12-11T11:06:47;18.02;;;9.18;;
18206;SDS011;9229;52.354;20.886;2022-12-11T11:11:50;17.60;;;8.80;;
18206;SDS011;9229;52.354;20.886;2022-12-11T11:16:54;20.48;;;10.35;;
18206;SDS011;9229;52.354;20.886;2022-12-11T11:21:58;17.08;;;8.45;;
18206;SDS011;9229;52.354;20.886;2022-12-11T11:27:11;18.73;;;9.13;;
18206;SDS011;9229;52.354;20.886;2022-12-11T11:32:22;15.00;;;8.43;;
18206;SDS011;9229;52.354;20.886;2022-12-11T11:37:30;14.90;;;8.48;;
18206;SDS011;9229;52.354;20.886;2022-12-11T11:42:38;21.10;;;10.27;;
18206;SDS011;9229;52.354;20.886;2022-12-11T11:47:47;15.77;;;7.90;;
18206;SDS011;9229;52.354;20.886;2022-12-11T11:52:57;14.93;;;8.40;;
18206;SDS011;9229;52.354;20.886;2022-12-11T11:58:08;17.92;;;8.20;;
18206;SDS011;9229;52.354;20.886;2022-12-11T12:03:17;18.02;;;8.70;;
18206;SDS011;9229;52.354;20.886;2022-12-11T12:08:24;18.35;;;8.65;;
18206;SDS011;9229;52.354;20.886;2022-12-11T12:13:42;13.55;;;8.48;;
18206;SDS011;9229;52.354;20.886;2022-12-11T12:18:51;15.23;;;7.85;;
18206;SDS011;9229;52.354;20.886;2022-12-11T12:24:05;12.75;;;8.10;;
18206;SDS011;9229;52.354;20.886;2022-12-11T12:29:20;14.77;;;7.53;;
18206;SDS011;9229;52.354;20.886;2022-12-11T12:34:38;14.45;;;7.65;;
18206;SDS011;9229;52.354;20.886;2022-12-11T12:39:53;14.65;;;7.63;;
18206;SDS011;9229;52.354;20.886;2022-12-11T12:45:06;16.10;;;8.27;;
18206;SDS011;9229;52.354;20.886;2022-12-11T12:50:17;16.50;;;7.65;;
18206;SDS011;9229;52.354;20.886;2022-12-11T12:55:22;19.25;;;9.07;;
18206;SDS011;9229;52.354;20.886;2022-12-11T13:00:34;21.70;;;8.98;;
18206;SDS011;9229;52.354;20.886;2022-12-11T13:05:39;21.27;;;8.77;;
18206;SDS011;9229;52.354;20.886;2022-12-11T13:10:43;18.45;;;8.68;;
18206;SDS011;9229;52.354;20.886;2022-12-11T13:15:47;17.27;;;8.43;;
18206;SDS011;9229;52.354;20.886;2022-12-11T13:20:49;22.00;;;7.88;;
18206;SDS011;9229;52.354;20.886;2022-12-11T13:25:53;17.60;;;9.57;;
18206;SDS011;9229;52.354;20.886;2022-12-11T13:31:06;15.48;;;8.48;;
18206;SDS011;9229;52.354;20.886;2022-12-11T13:36:29;10.73;;;7.40;;
18206;SDS011;9229;52.354;20.886;2022-12-11T13:41:35;15.30;;;8.18;;
18206;SDS011;9229;52.354;20.886;2022-12-11T13:46:42;12.48;;;7.25;;
18206;SDS011;9229;52.354;20.886;2022-12-11T13:51:50;12.10;;;6.80;;
18206;SDS011;9229;52.354;20.886;2022-12-11T13:56:56;11.07;;;7.40;;
18206;SDS011;9229;52.354;20.886;2022-12-11T14:02:04;12.43;;;7.88;;
18206;SDS011;9229;52.354;20.886;2022-12-11T14:07:25;16.35;;;8.00;;
18206;SDS011;9229;52.354;20.886;2022-12-11T14:12:29;11.38;;;7.88;;
18206;SDS011;9229;52.354;20.886;2022-12-11T14:17:34;21.23;;;8.00;;
18206;SDS011;9229;52.354;20.886;2022-12-11T14:22:36;16.27;;;8.38;;
18206;SDS011;9229;52.354;20.886;2022-12-11T14:27:45;15.35;;;8.30;;
18206;SDS011;9229;52.354;20.886;2022-12-11T14:32:50;14.60;;;8.20;;
18206;SDS011;9229;52.354;20.886;2022-12-11T14:37:57;11.98;;;7.35;;
18206;SDS011;9229;52.354;20.886;2022-12-11T14:43:03;10.43;;;6.45;;
18206;SDS011;9229;52.354;20.886;2022-12-11T14:48:11;11.15;;;6.78;;
18206;SDS011;9229;52.354;20.886;2022-12-11T14:53:18;11.20;;;6.53;;
18206;SDS011;9229;52.354;20.886;2022-12-11T14:58:23;10.48;;;6.60;;
18206;SDS011;9229;52.354;20.886;2022-12-11T15:03:30;13.48;;;7.20;;
18206;SDS011;9229;52.354;20.886;2022-12-11T15:08:34;13.40;;;6.70;;
18206;SDS011;9229;52.354;20.886;2022-12-11T15:13:38;18.25;;;7.75;;
18206;SDS011;9229;52.354;20.886;2022-12-11T15:18:53;15.07;;;7.93;;
18206;SDS011;9229;52.354;20.886;2022-12-11T15:23:58;12.70;;;7.95;;
18206;SDS011;9229;52.354;20.886;2022-12-11T15:29:03;19.83;;;8.68;;
18206;SDS011;9229;52.354;20.886;2022-12-11T15:34:20;8.18;;;6.18;;
18206;SDS011;9229;52.354;20.886;2022-12-11T15:39:23;14.90;;;8.32;;
18206;SDS011;9229;52.354;20.886;2022-12-11T15:44:24;12.60;;;7.55;;
18206;SDS011;9229;52.354;20.886;2022-12-11T15:49:30;11.18;;;7.68;;
18206;SDS011;9229;52.354;20.886;2022-12-11T15:54:34;18.45;;;8.57;;
18206;SDS011;9229;52.354;20.886;2022-12-11T15:59:36;17.63;;;8.23;;
18206;SDS011;9229;52.354;20.886;2022-12-11T16:04:40;15.23;;;7.93;;
18206;SDS011;9229;52.354;20.886;2022-12-11T16:09:42;15.20;;;7.57;;
18206;SDS011;9229;52.354;20.886;2022-12-11T16:14:45;15.50;;;7.38;;
18206;SDS011;9229;52.354;20.886;2022-12-11T16:19:49;12.73;;;8.25;;
18206;SDS011;9229;52.354;20.886;2022-12-11T16:24:52;12.73;;;7.30;;
18206;SDS011;9229;52.354;20.886;2022-12-11T16:29:53;11.70;;;6.90;;
18206;SDS011;9229;52.354;20.886;2022-12-11T16:34:58;16.90;;;8.27;;
18206;SDS011;9229;52.354;20.886;2022-12-11T16:40:00;18.05;;;10.20;;
18206;SDS011;9229;52.354;20.886;2022-12-11T16:45:03;23.00;;;9.73;;
18206;SDS011;9229;52.354;20.886;2022-12-11T16:50:09;20.50;;;9.20;;
18206;SDS011;9229;52.354;20.886;2022-12-11T16:55:13;23.08;;;9.80;;
18206;SDS011;9229;52.354;20.886;2022-12-11T17:00:15;19.45;;;8.40;;
18206;SDS011;9229;52.354;20.886;2022-12-11T17:05:19;24.67;;;9.10;;
18206;SDS011;9229;52.354;20.886;2022-12-11T17:10:22;20.15;;;10.77;;
18206;SDS011;9229;52.354;20.886;2022-12-11T17:15:27;20.90;;;9.95;;
18206;SDS011;9229;52.354;20.886;2022-12-11T17:20:31;14.05;;;8.00;;
18206;SDS011;9229;52.354;20.886;2022-12-11T17:25:34;15.15;;;8.25;;
18206;SDS011;9229;52.354;20.886;2022-12-11T17:30:40;16.73;;;8.38;;
18206;SDS011;9229;52.354;20.886;2022-12-11T17:35:44;11.18;;;6.68;;
18206;SDS011;9229;52.354;20.886;2022-12-11T17:40:47;10.85;;;7.57;;
18206;SDS011;9229;52.354;20.886;2022-12-11T17:45:52;15.30;;;8.75;;
18206;SDS011;9229;52.354;20.886;2022-12-11T17:51:02;14.70;;;8.38;;
18206;SDS011;9229;52.354;20.886;2022-12-11T17:56:07;20.58;;;9.38;;
18206;SDS011;9229;52.354;20.886;2022-12-11T18:01:10;20.90;;;10.52;;
18206;SDS011;9229;52.354;20.886;2022-12-11T18:06:15;20.40;;;11.63;;
18206;SDS011;9229;52.354;20.886;2022-12-11T18:11:18;20.90;;;10.65;;
18206;SDS011;9229;52.354;20.886;2022-12-11T18:16:22;20.75;;;10.27;;
18206;SDS011;9229;52.354;20.886;2022-12-11T18:21:30;19.15;;;10.50;;
18206;SDS011;9229;52.354;20.886;2022-12-11T18:26:34;19.30;;;8.43;;
18206;SDS011;9229;52.354;20.886;2022-12-11T18:31:37;21.23;;;9.40;;
18206;SDS011;9229;52.354;20.886;2022-12-11T18:36:47;22.70;;;11.13;;
18206;SDS011;9229;52.354;20.886;2022-12-11T18:41:52;48.25;;;17.23;;
18206;SDS011;9229;52.354;20.886;2022-12-11T18:46:56;30.27;;;13.52;;
18206;SDS011;9229;52.354;20.886;2022-12-11T18:52:07;26.65;;;11.95;;
18206;SDS011;9229;52.354;20.886;2022-12-11T18:57:10;22.27;;;11.80;;
18206;SDS011;9229;52.354;20.886;2022-12-11T19:02:13;34.42;;;14.63;;
18206;SDS011;9229;52.354;20.886;2022-12-11T19:07:23;23.65;;;10.88;;
18206;SDS011;9229;52.354;20.886;2022-12-11T19:12:25;19.75;;;10.45;;
18206;SDS011;9229;52.354;20.886;2022-12-11T19:17:27;20.98;;;10.73;;
18206;SDS011;9229;52.354;20.886;2022-12-11T19:22:32;22.92;;;11.75;;
18206;SDS011;9229;52.354;20.886;2022-12-11T19:27:34;15.45;;;8.18;;
18206;SDS011;9229;52.354;20.886;2022-12-11T19:32:47;30.45;;;11.77;;
18206;SDS011;9229;52.354;20.886;2022-12-11T19:38:03;19.98;;;9.10;;
18206;SDS011;9229;52.354;20.886;2022-12-11T19:43:25;18.10;;;9.02;;
18206;SDS011;9229;52.354;20.886;2022-12-11T19:48:39;17.77;;;8.98;;
18206;SDS011;9229;52.354;20.886;2022-12-11T19:53:47;23.02;;;13.07;;
18206;SDS011;9229;52.354;20.886;2022-12-11T19:58:51;28.00;;;15.48;;
18206;SDS011;9229;52.354;20.886;2022-12-11T20:03:53;29.50;;;14.18;;
18206;SDS011;9229;52.354;20.886;2022-12-11T20:09:01;19.65;;;10.75;;
18206;SDS011;9229;52.354;20.886;2022-12-11T20:14:05;33.60;;;17.50;;
18206;SDS011;9229;52.354;20.886;2022-12-11T20:19:11;30.27;;;13.43;;
18206;SDS011;9229;52.354;20.886;2022-12-11T20:24:16;19.63;;;8.43;;
18206;SDS011;9229;52.354;20.886;2022-12-11T20:29:18;18.95;;;8.70;;
18206;SDS011;9229;52.354;20.886;2022-12-11T20:34:27;20.65;;;10.43;;
18206;SDS011;9229;52.354;20.886;2022-12-11T20:39:31;17.75;;;9.20;;
18206;SDS011;9229;52.354;20.886;2022-12-11T20:44:33;21.83;;;10.48;;
18206;SDS011;9229;52.354;20.886;2022-12-11T20:49:35;23.90;;;11.40;;
18206;SDS011;9229;52.354;20.886;2022-12-11T20:54:40;20.02;;;11.00;;
18206;SDS011;9229;52.354;20.886;2022-12-11T20:59:43;21.38;;;10.77;;
18206;SDS011;9229;52.354;20.886;2022-12-11T21:04:45;51.13;;;20.63;;
18206;SDS011;9229;52.354;20.886;2022-12-11T21:09:49;33.63;;;15.68;;
18206;SDS011;9229;52.354;20.886;2022-12-11T21:14:52;32.22;;;16.02;;
18206;SDS011;9229;52.354;20.886;2022-12-11T21:19:54;20.98;;;10.93;;
18206;SDS011;9229;52.354;20.886;2022-12-11T21:24:59;29.70;;;12.57;;
18206;SDS011;9229;52.354;20.886;2022-12-11T21:30:04;25.88;;;12.70;;
18206;SDS011;9229;52.354;20.886;2022-12-11T21:35:07;34.90;;;16.55;;
18206;SDS011;9229;52.354;20.886;2022-12-11T21:40:12;31.83;;;13.25;;
18206;SDS011;9229;52.354;20.886;2022-12-11T21:45:16;36.58;;;16.48;;
18206;SDS011;9229;52.354;20.886;2022-12-11T21:50:19;39.65;;;19.73;;
18206;SDS011;9229;52.354;20.886;2022-12-11T21:55:25;40.25;;;16.88;;
18206;SDS011;9229;52.354;20.886;2022-12-11T22:00:28;24.27;;;13.35;;
18206;SDS011;9229;52.354;20.886;2022-12-11T22:05:30;24.10;;;11.25;;
18206;SDS011;9229;52.354;20.886;2022-12-11T22:10:34;21.50;;;11.68;;
18206;SDS011;9229;52.354;20.886;2022-12-11T22:15:36;32.88;;;13.13;;
18206;SDS011;9229;52.354;20.886;2022-12-11T22:20:38;37.45;;;14.50;;
18206;SDS011;9229;52.354;20.886;2022-12-11T22:25:41;23.45;;;11.23;;
18206;SDS011;9229;52.354;20.886;2022-12-11T22:30:43;21.27;;;10.73;;
18206;SDS011;9229;52.354;20.886;2022-12-11T22:35:50;23.23;;;12.90;;
18206;SDS011;9229;52.354;20.886;2022-12-11T22:40:57;28.23;;;12.32;;
18206;SDS011;9229;52.354;20.886;2022-12-11T22:46:04;28.48;;;13.05;;
18206;SDS011;9229;52.354;20.886;2022-12-11T22:51:06;32.70;;;15.55;;
18206;SDS011;9229;52.354;20.886;2022-12-11T22:56:10;28.25;;;12.45;;
18206;SDS011;9229;52.354;20.886;2022-12-11T23:01:15;25.45;;;12.52;;
18206;SDS011;9229;52.354;20.886;2022-12-11T23:06:20;24.33;;;12.63;;
18206;SDS011;9229;52.354;20.886;2022-12-11T23:11:26;21.88;;;11.13;;
18206;SDS011;9229;52.354;20.886;2022-12-11T23:16:30;35.08;;;19.42;;
18206;SDS011;9229;52.354;20.886;2022-12-11T23:21:33;20.58;;;11.10;;
18206;SDS011;9229;52.354;20.886;2022-12-11T23:26:36;25.27;;;11.60;;
18206;SDS011;9229;52.354;20.886;2022-12-11T23:31:38;26.35;;;12.10;;
18206;SDS011;9229;52.354;20.886;2022-12-11T23:36:40;21.08;;;11.25;;
18206;SDS011;9229;52.354;20.886;2022-12-11T23:41:44;23.58;;;10.55;;
18206;SDS011;9229;52.354;20.886;2022-12-11T23:46:46;24.45;;;10.95;;
18206;SDS011;9229;52.354;20.886;2022-12-11T23:51:48;24.95;;;11.63;;
18206;SDS011;9229;52.354;20.886;2022-12-11T23:56:52;23.83;;;10.07;;
